createdAt,value
2018-02-20T00:02:30.121Z,46.43
2018-02-20T00:07:13.466Z,49.23
2018-02-20T00:11:56.799Z,47.10
2018-02-20T00:16:40.189Z,50.93
2018-02-20T00:21:23.530Z,49.23
2018-02-20T00:26:07.683Z,48.50
2018-02-20T00:30:51.815Z,48.77
2018-02-20T00:35:35.191Z,51.07
2018-02-20T00:40:19.322Z,53.27
2018-02-20T00:45:02.722Z,49.63
2018-02-20T00:49:46.086Z,52.87
2018-02-20T00:54:29.414Z,50.10
2018-02-20T00:59:13.033Z,51.23
2018-02-20T01:03:57.122Z,48.83
2018-02-20T01:08:40.472Z,49.33
2018-02-20T01:13:23.826Z,55.90
2018-02-20T01:18:07.150Z,53.60
2018-02-20T01:22:50.482Z,59.33
2018-02-20T01:27:33.911Z,55.83
2018-02-20T01:32:17.298Z,63.43
2018-02-20T01:37:00.641Z,63.93
2018-02-20T01:41:43.974Z,60.63
2018-02-20T01:46:27.368Z,62.30
2018-02-20T01:51:11.461Z,59.60
2018-02-20T01:55:54.767Z,62.13
2018-02-20T02:00:38.140Z,60.70
2018-02-20T02:05:21.506Z,60.73
2018-02-20T02:10:04.996Z,57.03
2018-02-20T02:14:48.379Z,54.80
2018-02-20T02:19:31.703Z,62.87
2018-02-20T02:24:15.088Z,62.70
2018-02-20T02:28:58.433Z,62.03
2018-02-20T02:33:41.785Z,63.20
2018-02-20T02:38:25.151Z,68.43
2018-02-20T02:43:08.482Z,59.20
2018-02-20T02:47:51.853Z,60.90
2018-02-20T02:52:35.195Z,63.63
2018-02-20T02:57:18.519Z,58.53
2018-02-20T03:02:01.846Z,65.03
2018-02-20T03:06:45.209Z,63.03
2018-02-20T03:11:28.535Z,62.40
2018-02-20T03:16:12.719Z,56.67
2018-02-20T03:20:56.058Z,54.50
2018-02-20T03:25:39.416Z,56.00
2018-02-20T03:30:22.797Z,55.50
2018-02-20T03:35:06.194Z,55.73
2018-02-20T03:39:49.539Z,53.73
2018-02-20T03:44:32.903Z,57.80
2018-02-20T03:49:17.006Z,52.07
2018-02-20T03:54:00.351Z,50.00
2018-02-20T03:58:43.701Z,55.60
2018-02-20T04:03:27.103Z,55.23
2018-02-20T04:08:10.410Z,53.33
2018-02-20T04:12:54.723Z,54.63
2018-02-20T04:17:38.044Z,53.50
2018-02-20T04:22:22.184Z,56.23
2018-02-20T04:27:05.568Z,59.83
2018-02-20T04:31:48.856Z,62.10
2018-02-20T04:36:32.948Z,57.30
2018-02-20T04:41:16.262Z,60.57
2018-02-20T04:46:00.366Z,56.37
2018-02-20T04:50:43.706Z,50.90
2018-02-20T04:55:27.073Z,60.80
2018-02-20T05:00:10.398Z,58.70
2018-02-20T05:04:53.741Z,56.63
2018-02-20T05:09:37.097Z,58.40
2018-02-20T05:14:20.460Z,57.20
2018-02-20T05:19:04.602Z,59.80
2018-02-20T05:23:48.028Z,63.70
2018-02-20T05:28:31.725Z,60.43
2018-02-20T05:33:15.035Z,52.60
2018-02-20T05:37:58.349Z,50.27
2018-02-20T05:42:41.707Z,47.23
2018-02-20T05:47:25.041Z,46.90
2018-02-20T05:52:08.380Z,47.63
2018-02-20T05:56:51.715Z,49.57
2018-02-20T06:01:35.051Z,47.90
2018-02-20T06:06:18.459Z,52.23
2018-02-20T06:11:02.508Z,57.60
2018-02-20T06:15:45.872Z,65.80
2018-02-20T06:20:29.211Z,61.37
2018-02-20T06:25:12.576Z,62.50
2018-02-20T06:29:56.738Z,61.97
2018-02-20T06:34:40.074Z,65.20
2018-02-20T06:39:23.657Z,70.70
2018-02-20T06:44:07.005Z,68.03
2018-02-20T06:48:50.414Z,68.27
2018-02-20T06:53:33.789Z,70.13
2018-02-20T06:58:17.196Z,77.83
2018-02-20T07:03:00.574Z,69.33
2018-02-20T07:07:44.801Z,73.70
2018-02-20T07:12:28.961Z,76.30
2018-02-20T07:17:12.360Z,68.20
2018-02-20T07:21:55.752Z,72.23
2018-02-20T07:31:31.584Z,63.40
2018-02-20T07:36:15.842Z,64.83
2018-02-20T07:40:59.222Z,57.97
2018-02-20T07:45:42.829Z,61.93
2018-02-20T07:50:29.207Z,54.33
2018-02-20T07:55:13.676Z,51.80
2018-02-20T07:59:57.096Z,59.57
2018-02-20T08:04:40.461Z,57.27
2018-02-20T08:09:23.792Z,51.10
2018-02-20T08:19:33.436Z,55.70
2018-02-20T08:24:16.803Z,51.97
2018-02-20T08:29:00.215Z,50.17
2018-02-20T08:33:43.511Z,57.63
2018-02-20T08:38:27.154Z,54.43
2018-02-20T08:43:10.626Z,56.60
2018-02-20T08:47:54.026Z,50.23
2018-02-20T08:52:37.419Z,51.37
2018-02-20T08:57:30.737Z,53.57
2018-02-20T09:02:15.716Z,52.63
2018-02-20T09:07:01.258Z,50.00
2018-02-20T09:11:45.567Z,49.93
2018-02-20T09:16:28.901Z,54.07
2018-02-20T09:21:12.743Z,56.27
2018-02-20T09:25:56.069Z,56.70
2018-02-20T09:30:39.414Z,50.53
2018-02-20T09:35:22.817Z,47.17
2018-02-20T09:40:06.200Z,45.87
2018-02-20T09:44:49.531Z,48.27
2018-02-20T09:49:32.930Z,65.77
2018-02-20T09:54:17.019Z,48.43
2018-02-20T09:59:00.388Z,47.10
2018-02-20T10:03:44.025Z,48.00
2018-02-20T10:08:27.397Z,45.27
2018-02-20T10:13:16.348Z,40.67
2018-02-20T10:17:59.724Z,38.43
2018-02-20T10:22:43.339Z,36.07
2018-02-20T10:27:28.036Z,33.70
2018-02-20T10:32:16.349Z,32.30
2018-02-20T10:36:59.817Z,32.70
2018-02-20T10:41:43.143Z,34.87
2018-02-20T10:46:26.581Z,34.23
2018-02-20T10:51:09.957Z,29.73
2018-02-20T10:55:55.196Z,30.03
2018-02-20T11:00:39.422Z,30.57
2018-02-20T11:05:27.807Z,30.90
2018-02-20T11:10:11.440Z,29.33
2018-02-20T11:14:56.009Z,26.87
2018-02-20T11:19:40.147Z,28.50
2018-02-20T11:24:24.242Z,26.60
2018-02-20T11:29:07.655Z,22.50
2018-02-20T11:33:51.043Z,25.37
2018-02-20T11:38:34.687Z,29.73
2018-02-20T11:43:18.091Z,23.10
2018-02-20T11:48:01.502Z,21.43
2018-02-20T11:52:44.836Z,25.97
2018-02-20T11:57:33.009Z,22.37
2018-02-20T12:02:20.783Z,28.63
2018-02-20T12:07:06.640Z,20.43
2018-02-20T12:12:04.626Z,18.90
2018-02-20T12:16:48.207Z,19.97
2018-02-20T12:21:31.632Z,17.80
2018-02-20T12:26:15.026Z,20.57
2018-02-20T12:30:58.408Z,19.60
2018-02-20T12:35:41.998Z,21.80
2018-02-20T12:40:25.319Z,20.70
2018-02-20T12:45:09.418Z,19.67
2018-02-20T12:49:52.769Z,20.43
2018-02-20T12:54:36.092Z,17.90
2018-02-20T12:59:19.539Z,21.73
2018-02-20T13:04:02.871Z,19.83
2018-02-20T13:08:46.234Z,17.23
2018-02-20T13:13:29.847Z,19.97
2018-02-20T13:18:13.255Z,16.67
2018-02-20T13:22:56.681Z,17.03
2018-02-20T13:27:40.139Z,16.87
2018-02-20T13:32:23.452Z,22.17
2018-02-20T13:37:07.961Z,20.60
2018-02-20T13:41:51.361Z,27.13
2018-02-20T13:46:35.135Z,25.20
2018-02-20T13:51:19.278Z,28.93
2018-02-20T13:56:02.615Z,33.73
2018-02-20T14:00:47.398Z,30.83
2018-02-20T14:05:31.614Z,27.90
2018-02-20T14:10:22.778Z,30.27
2018-02-20T14:15:06.179Z,33.63
2018-02-20T14:19:50.803Z,32.97
2018-02-20T14:24:34.136Z,31.47
2018-02-20T14:29:17.495Z,32.33
2018-02-20T14:34:00.835Z,31.23
2018-02-20T14:38:44.168Z,32.93
2018-02-20T14:43:27.612Z,43.67
2018-02-20T14:48:11.056Z,42.70
2018-02-20T14:52:55.197Z,47.53
2018-02-20T14:57:38.512Z,49.40
2018-02-20T15:02:21.957Z,48.17
2018-02-20T15:07:05.367Z,50.33
2018-02-20T15:11:48.804Z,53.50
2018-02-20T15:16:32.164Z,45.33
2018-02-20T15:21:15.545Z,46.97
2018-02-20T15:25:58.896Z,53.40
2018-02-20T15:30:42.226Z,55.40
2018-02-20T15:35:25.537Z,61.97
2018-02-20T15:40:08.901Z,55.73
2018-02-20T15:44:52.234Z,59.50
2018-02-20T15:49:38.912Z,64.07
2018-02-20T15:54:26.192Z,64.40
2018-02-20T15:59:12.686Z,72.17
2018-02-20T16:03:59.823Z,62.17
2018-02-20T16:08:43.293Z,67.60
2018-02-20T16:13:26.637Z,65.13
2018-02-20T16:18:11.024Z,67.30
2018-02-20T16:22:55.193Z,67.43
2018-02-20T16:27:39.293Z,66.33
2018-02-20T16:32:23.004Z,72.00
2018-02-20T16:37:06.322Z,64.77
2018-02-20T16:41:50.438Z,75.43
2018-02-20T16:46:33.834Z,72.03
2018-02-20T16:56:54.207Z,72.53
2018-02-20T17:07:07.190Z,66.13
2018-02-20T17:11:51.597Z,68.87
2018-02-20T17:21:53.584Z,76.53
2018-02-20T17:26:37.753Z,61.30
2018-02-20T17:31:21.959Z,64.27
2018-02-20T17:36:07.651Z,65.40
2018-02-20T17:40:54.004Z,69.50
2018-02-20T17:50:27.898Z,57.07
2018-02-20T17:55:11.623Z,58.03
2018-02-20T17:59:55.392Z,58.83
2018-02-20T18:04:39.437Z,44.87
2018-02-20T18:09:22.972Z,51.03
2018-02-20T18:14:06.510Z,50.10
2018-02-20T18:18:50.696Z,48.30
2018-02-20T18:23:34.352Z,48.47
2018-02-20T18:28:17.792Z,48.17
2018-02-20T18:33:01.224Z,47.27
2018-02-20T18:37:45.448Z,48.27
2018-02-20T18:42:28.880Z,47.97
2018-02-20T18:52:07.561Z,45.80
2018-02-20T18:56:51.253Z,51.53
2018-02-20T19:01:36.379Z,48.30
2018-02-20T19:06:20.883Z,48.87
2018-02-20T19:11:08.891Z,47.40
2018-02-20T19:15:52.364Z,47.30
2018-02-20T19:20:36.527Z,50.13
2018-02-20T19:25:20.633Z,49.97
2018-02-20T19:30:04.038Z,50.33
2018-02-20T19:34:47.472Z,52.53
2018-02-20T19:39:32.168Z,50.23
2018-02-20T19:44:15.630Z,49.63
2018-02-20T19:48:58.948Z,47.03
2018-02-20T19:53:42.607Z,44.73
2018-02-20T19:58:26.108Z,50.57
2018-02-20T20:03:09.532Z,51.87
2018-02-20T20:07:52.990Z,54.50
2018-02-20T20:12:36.517Z,52.17
2018-02-20T20:17:20.011Z,53.57
2018-02-20T20:22:03.411Z,53.73
2018-02-20T20:26:47.951Z,55.80
2018-02-20T20:31:31.338Z,49.73
2018-02-20T20:36:15.163Z,58.43
2018-02-20T20:40:58.621Z,56.50
2018-02-20T20:45:42.280Z,65.53
2018-02-20T20:50:25.700Z,61.57
2018-02-20T20:55:09.266Z,51.00
2018-02-20T20:59:52.720Z,60.43
2018-02-20T21:04:36.925Z,59.07
2018-02-20T21:09:20.287Z,68.07
2018-02-20T21:14:03.650Z,65.17
2018-02-20T21:18:47.039Z,60.00
2018-02-20T21:23:30.411Z,60.67
2018-02-20T21:28:13.775Z,59.77
2018-02-20T21:32:57.322Z,57.53
2018-02-20T21:37:40.741Z,57.27
2018-02-20T21:42:24.362Z,60.83
2018-02-20T21:47:07.852Z,63.40
2018-02-20T21:51:52.098Z,55.43
2018-02-20T21:56:35.431Z,53.80
2018-02-20T22:01:18.753Z,56.60
2018-02-20T22:06:02.880Z,59.50
2018-02-20T22:10:46.211Z,62.83
2018-02-20T22:15:30.377Z,61.90
2018-02-20T22:20:13.802Z,58.00
2018-02-20T22:24:57.188Z,60.73
2018-02-20T22:29:40.540Z,59.53
2018-02-20T22:34:23.882Z,59.43
2018-02-20T22:39:07.396Z,61.43
2018-02-20T22:43:50.741Z,62.70
2018-02-20T22:48:34.087Z,61.77
2018-02-20T22:53:17.443Z,59.10
2018-02-20T22:58:00.770Z,56.20
2018-02-20T23:02:44.095Z,62.37
2018-02-20T23:07:27.462Z,58.90
2018-02-20T23:12:11.671Z,56.97
2018-02-20T23:16:55.796Z,55.70
2018-02-20T23:21:39.215Z,56.93
2018-02-20T23:26:22.556Z,57.70
2018-02-20T23:31:06.239Z,62.13
2018-02-20T23:35:49.602Z,56.27
2018-02-20T23:40:32.924Z,52.13
2018-02-20T23:45:16.271Z,52.43
2018-02-20T23:49:59.619Z,60.57
2018-02-20T23:54:43.717Z,55.63
2018-02-20T23:59:27.133Z,53.90
